createdAt,value
2023-04-16T00:01:14.063Z,100576.44
2023-04-16T00:03:41.541Z,100565.06
2023-04-16T00:06:12.667Z,100565.69
2023-04-16T00:08:41.310Z,100570.66
2023-04-16T00:11:08.673Z,100556.50
2023-04-16T00:13:35.937Z,100553.31
2023-04-16T00:16:03.284Z,100544.78
2023-04-16T00:18:32.214Z,100547.69
2023-04-16T00:20:59.809Z,100557.50
2023-04-16T00:23:26.989Z,100548.81
2023-04-16T00:25:54.199Z,100535.69
2023-04-16T00:28:22.721Z,100538.41
2023-04-16T00:30:50.068Z,100537.59
2023-04-16T00:33:17.820Z,100524.56
2023-04-16T00:35:48.531Z,100529.22
2023-04-16T00:38:16.104Z,100535.31
2023-04-16T00:40:43.212Z,100532.13
2023-04-16T00:43:10.464Z,100522.13
2023-04-16T00:45:37.732Z,100509.44
2023-04-16T00:48:06.111Z,100512.81
2023-04-16T00:50:34.876Z,100506.06
2023-04-16T00:53:02.798Z,100498.66
2023-04-16T00:55:31.696Z,100491.44
2023-04-16T00:57:58.824Z,100497.22
2023-04-16T01:00:27.090Z,100487.25
2023-04-16T01:02:54.966Z,100479.22
2023-04-16T01:05:22.227Z,100475.66
2023-04-16T01:07:49.287Z,100478.22
2023-04-16T01:10:16.318Z,100468.28
2023-04-16T01:12:43.454Z,100479.69
2023-04-16T01:15:11.551Z,100471.97
2023-04-16T01:17:38.818Z,100475.50
2023-04-16T01:20:06.659Z,100473.59
2023-04-16T01:22:33.777Z,100474.69
2023-04-16T01:25:01.138Z,100479.50
2023-04-16T01:27:28.271Z,100478.22
2023-04-16T01:29:56.449Z,100481.41
2023-04-16T01:32:33.478Z,100479.00
2023-04-16T01:35:00.841Z,100488.16
2023-04-16T01:37:27.938Z,100488.31
2023-04-16T01:39:55.283Z,100495.75
2023-04-16T01:42:22.315Z,100491.78
2023-04-16T01:44:50.864Z,100484.88
2023-04-16T01:47:18.232Z,100490.31
2023-04-16T01:49:48.293Z,100480.03
2023-04-16T01:52:15.670Z,100484.84
2023-04-16T01:54:42.697Z,100476.00
2023-04-16T01:57:10.123Z,100470.88
2023-04-16T01:59:37.548Z,100458.97
2023-04-16T02:02:11.459Z,100458.97
2023-04-16T02:04:45.296Z,100445.34
2023-04-16T02:07:12.900Z,100442.16
2023-04-16T02:09:41.300Z,100445.66
2023-04-16T02:12:11.446Z,100443.06
2023-04-16T02:14:38.590Z,100432.78
2023-04-16T02:17:05.792Z,100430.06
2023-04-16T02:19:41.460Z,100422.34
2023-04-16T02:22:09.865Z,100417.34
2023-04-16T02:24:36.948Z,100401.16
2023-04-16T02:27:08.239Z,100394.56
2023-04-16T02:29:36.135Z,100383.00
2023-04-16T02:32:10.661Z,100384.25
2023-04-16T02:34:40.350Z,100374.03
2023-04-16T02:37:08.280Z,100366.94
2023-04-16T02:39:35.424Z,100366.31
2023-04-16T02:42:02.958Z,100368.75
2023-04-16T02:44:30.124Z,100365.88
2023-04-16T02:46:57.132Z,100355.47
2023-04-16T02:49:24.255Z,100360.16
2023-04-16T02:51:51.255Z,100353.28
2023-04-16T02:54:18.376Z,100356.66
2023-04-16T02:56:45.655Z,100346.25
2023-04-16T02:59:12.854Z,100350.56
2023-04-16T03:01:40.076Z,100352.66
2023-04-16T03:04:07.313Z,100348.34
2023-04-16T03:06:34.461Z,100351.22
2023-04-16T03:09:01.661Z,100353.31
2023-04-16T03:11:28.793Z,100344.81
2023-04-16T03:13:56.791Z,100336.47
2023-04-16T03:16:24.124Z,100335.69
2023-04-16T03:18:51.273Z,100336.94
2023-04-16T03:21:19.316Z,100336.47
2023-04-16T03:23:46.356Z,100335.34
2023-04-16T03:26:13.357Z,100332.78
2023-04-16T03:28:40.479Z,100324.31
2023-04-16T03:31:08.009Z,100327.19
2023-04-16T03:33:36.753Z,100342.44
2023-04-16T03:36:05.201Z,100340.03
2023-04-16T03:38:32.382Z,100332.97
2023-04-16T03:40:59.893Z,100341.31
2023-04-16T03:43:27.469Z,100345.34
2023-04-16T03:45:54.682Z,100340.19
2023-04-16T03:48:23.828Z,100342.75
2023-04-16T03:50:51.059Z,100333.78
2023-04-16T03:53:19.999Z,100333.78
2023-04-16T03:55:53.677Z,100328.00
2023-04-16T03:58:21.957Z,100311.81
2023-04-16T04:00:49.114Z,100312.28
2023-04-16T04:03:18.044Z,100320.97
2023-04-16T04:05:47.785Z,100321.28
2023-04-16T04:08:18.873Z,100320.31
2023-04-16T04:10:46.320Z,100313.13
2023-04-16T04:13:15.239Z,100309.75
2023-04-16T04:15:44.535Z,100309.44
2023-04-16T04:18:11.672Z,100320.81
2023-04-16T04:20:41.899Z,100324.50
2023-04-16T04:23:09.038Z,100327.25
2023-04-16T04:25:36.193Z,100321.63
2023-04-16T04:28:03.368Z,100327.22
2023-04-16T04:30:30.860Z,100331.56
2023-04-16T04:32:58.523Z,100332.53
2023-04-16T04:35:25.708Z,100336.75
2023-04-16T04:37:53.241Z,100351.78
2023-04-16T04:40:21.218Z,100343.78
2023-04-16T04:42:48.501Z,100359.50
2023-04-16T04:45:16.136Z,100352.13
2023-04-16T04:47:44.299Z,100356.47
2023-04-16T04:50:12.003Z,100357.59
2023-04-16T04:52:39.806Z,100364.00
2023-04-16T04:55:08.446Z,100353.09
2023-04-16T04:57:36.644Z,100353.53
2023-04-16T05:00:06.268Z,100345.34
2023-04-16T05:02:42.076Z,100346.50
2023-04-16T05:05:09.375Z,100344.41
2023-04-16T05:07:36.623Z,100342.00
2023-04-16T05:10:03.689Z,100342.81
2023-04-16T05:12:31.057Z,100334.94
2023-04-16T05:14:58.079Z,100334.13
2023-04-16T05:17:25.200Z,100363.06
2023-04-16T05:19:52.633Z,100400.72
2023-04-16T05:22:19.724Z,100380.28
2023-04-16T05:24:46.731Z,100366.00
2023-04-16T05:27:13.900Z,100380.69
2023-04-16T05:29:41.016Z,100398.28
2023-04-16T05:32:08.476Z,100406.25
2023-04-16T05:34:35.624Z,100396.72
2023-04-16T05:37:02.953Z,100382.25
2023-04-16T05:39:30.070Z,100382.31
2023-04-16T05:41:57.209Z,100377.00
2023-04-16T05:44:24.261Z,100365.50
2023-04-16T05:46:51.454Z,100365.50
2023-04-16T05:49:22.232Z,100351.53
2023-04-16T05:51:50.846Z,100344.78
2023-04-16T05:54:18.260Z,100348.00
2023-04-16T05:56:45.637Z,100354.53
2023-04-16T05:59:14.064Z,100356.81
2023-04-16T06:01:41.497Z,100357.66
2023-04-16T06:04:08.782Z,100352.94
2023-04-16T06:06:37.914Z,100357.38
2023-04-16T06:09:05.059Z,100356.41
2023-04-16T06:11:32.644Z,100354.09
2023-04-16T06:14:00.754Z,100347.34
2023-04-16T06:16:27.854Z,100335.97
2023-04-16T06:18:54.961Z,100328.63
2023-04-16T06:21:22.093Z,100317.06
2023-04-16T06:23:49.169Z,100312.66
2023-04-16T06:26:16.323Z,100308.44
2023-04-16T06:28:43.497Z,100311.06
2023-04-16T06:31:10.550Z,100332.94
2023-04-16T06:33:37.675Z,100345.19
2023-04-16T06:36:04.902Z,100345.00
2023-04-16T06:38:32.189Z,100359.38
2023-04-16T06:40:59.839Z,100360.50
2023-04-16T06:43:27.263Z,100361.13
2023-04-16T06:45:55.777Z,100352.22
2023-04-16T06:48:22.958Z,100345.47
2023-04-16T06:50:50.553Z,100339.53
2023-04-16T06:53:18.277Z,100337.94
2023-04-16T06:55:45.304Z,100330.31
2023-04-16T06:58:12.325Z,100335.63
2023-04-16T07:00:39.479Z,100326.88
2023-04-16T07:03:06.707Z,100337.97
2023-04-16T07:05:33.839Z,100347.53
2023-04-16T07:08:01.130Z,100355.47
2023-04-16T07:10:28.187Z,100346.59
2023-04-16T07:12:55.440Z,100332.00
2023-04-16T07:15:22.680Z,100319.53
2023-04-16T07:17:49.852Z,100306.75
2023-04-16T07:20:16.992Z,100312.19
2023-04-16T07:22:44.531Z,100302.44
2023-04-16T07:25:11.622Z,100287.94
2023-04-16T07:27:39.009Z,100300.28
2023-04-16T07:30:07.585Z,100295.81
2023-04-16T07:32:34.921Z,100303.63
2023-04-16T07:35:02.165Z,100287.09
2023-04-16T07:37:29.960Z,100279.88
2023-04-16T07:39:58.100Z,100287.56
2023-04-16T07:42:26.181Z,100281.47
2023-04-16T07:44:55.744Z,100289.53
2023-04-16T07:47:27.268Z,100280.56
2023-04-16T07:49:54.543Z,100285.66
2023-04-16T07:52:21.595Z,100292.38
2023-04-16T07:54:48.743Z,100295.63
2023-04-16T07:57:16.703Z,100293.81
2023-04-16T07:59:44.025Z,100300.09
2023-04-16T08:02:14.863Z,100299.28
2023-04-16T08:04:43.041Z,100293.66
2023-04-16T08:07:10.525Z,100309.97
2023-04-16T08:09:48.533Z,100292.03
2023-04-16T08:12:17.366Z,100286.41
2023-04-16T08:14:46.023Z,100289.03
2023-04-16T08:17:13.858Z,100283.59
2023-04-16T08:19:41.193Z,100289.31
2023-04-16T08:22:08.277Z,100296.66
2023-04-16T08:24:35.588Z,100300.06
2023-04-16T08:27:15.436Z,100299.66
2023-04-16T08:29:45.678Z,100301.41
2023-04-16T08:32:13.142Z,100304.34
2023-04-16T08:34:40.236Z,100297.75
2023-04-16T08:37:07.455Z,100302.91
2023-04-16T08:39:35.340Z,100303.53
2023-04-16T08:42:06.285Z,100299.28
2023-04-16T08:44:37.119Z,100311.47
2023-04-16T08:47:09.654Z,100303.25
2023-04-16T08:49:43.667Z,100306.94
2023-04-16T08:52:20.720Z,100303.66
2023-04-16T08:55:07.442Z,100297.22
2023-04-16T08:57:41.393Z,100299.38
2023-04-16T09:00:09.996Z,100305.78
2023-04-16T09:02:38.203Z,100307.41
2023-04-16T09:05:07.744Z,100292.75
2023-04-16T09:07:35.347Z,100307.22
2023-04-16T09:10:03.667Z,100303.47
2023-04-16T09:12:31.863Z,100316.13
2023-04-16T09:15:03.005Z,100329.00
2023-04-16T09:17:30.450Z,100314.38
2023-04-16T09:19:57.521Z,100318.72
2023-04-16T09:22:24.779Z,100314.94
2023-04-16T09:24:51.835Z,100315.53
2023-04-16T09:27:19.373Z,100314.97
2023-04-16T09:29:46.444Z,100316.47
2023-04-16T09:32:13.897Z,100326.88
2023-04-16T09:35:01.843Z,100319.44
2023-04-16T09:37:30.270Z,100309.06
2023-04-16T09:40:01.587Z,100305.59
2023-04-16T09:42:37.275Z,100305.56
2023-04-16T09:45:05.919Z,100307.16
2023-04-16T09:47:44.646Z,100309.56
2023-04-16T09:50:19.828Z,100299.09
2023-04-16T09:52:54.026Z,100298.25
2023-04-16T09:55:27.463Z,100295.25
2023-04-16T09:58:01.753Z,100293.91
2023-04-16T10:00:30.491Z,100298.34
2023-04-16T10:03:07.389Z,100291.03
2023-04-16T10:05:35.036Z,100285.47
2023-04-16T10:08:02.380Z,100272.34
2023-04-16T10:10:30.270Z,100271.25
2023-04-16T10:12:58.398Z,100286.56
2023-04-16T10:15:25.871Z,100290.44
2023-04-16T10:17:54.360Z,100282.22
2023-04-16T10:20:22.827Z,100262.06
2023-04-16T10:22:50.520Z,100257.25
2023-04-16T10:25:18.415Z,100242.94
2023-04-16T10:27:46.103Z,100246.94
2023-04-16T10:30:15.739Z,100238.28
2023-04-16T10:32:43.977Z,100228.84
2023-04-16T10:35:16.078Z,100237.09
2023-04-16T10:37:45.200Z,100223.44
2023-04-16T10:40:24.015Z,100223.81
2023-04-16T10:42:58.168Z,100219.44
2023-04-16T10:45:38.299Z,100219.28
2023-04-16T10:48:08.780Z,100216.56
2023-04-16T10:50:39.975Z,100227.72
2023-04-16T10:53:27.312Z,100207.63
2023-04-16T10:56:04.560Z,100205.91
2023-04-16T10:58:34.976Z,100196.97
2023-04-16T11:01:08.256Z,100191.16
2023-04-16T11:03:35.748Z,100194.97
2023-04-16T11:06:14.665Z,100187.06
2023-04-16T11:08:54.100Z,100186.47
2023-04-16T11:11:22.683Z,100178.63
2023-04-16T11:13:50.146Z,100176.38
2023-04-16T11:16:17.645Z,100161.66
2023-04-16T11:18:51.316Z,100167.38
2023-04-16T11:21:19.892Z,100160.81
2023-04-16T11:23:51.425Z,100154.06
2023-04-16T11:26:26.825Z,100137.22
2023-04-16T11:29:00.309Z,100143.47
2023-04-16T11:31:27.604Z,100153.41
2023-04-16T11:33:56.993Z,100145.22
2023-04-16T11:36:26.211Z,100140.19
2023-04-16T11:39:02.487Z,100144.66
2023-04-16T11:41:29.667Z,100143.50
2023-04-16T11:43:56.968Z,100127.78
2023-04-16T11:46:27.795Z,100139.72
2023-04-16T11:48:56.275Z,100138.00
2023-04-16T11:51:24.073Z,100124.59
2023-04-16T11:53:56.326Z,100127.66
2023-04-16T11:56:31.686Z,100125.13
2023-04-16T11:59:16.164Z,100122.03
2023-04-16T12:01:58.266Z,100118.59
2023-04-16T12:04:27.316Z,100113.75
2023-04-16T12:07:14.209Z,100110.06
2023-04-16T12:09:44.499Z,100103.63
2023-04-16T12:12:28.507Z,100097.75
2023-04-16T12:14:57.104Z,100088.72
2023-04-16T12:17:24.570Z,100085.94
2023-04-16T12:19:53.234Z,100076.31
2023-04-16T12:22:31.020Z,100065.41
2023-04-16T12:25:05.220Z,100065.34
2023-04-16T12:27:53.789Z,100051.22
2023-04-16T12:30:23.865Z,100043.44
2023-04-16T12:33:12.126Z,100051.84
2023-04-16T12:35:41.745Z,100042.47
2023-04-16T12:38:09.321Z,100039.00
2023-04-16T12:40:36.797Z,100034.44
2023-04-16T12:43:04.249Z,100023.34
2023-04-16T12:45:31.395Z,100016.97
2023-04-16T12:47:58.556Z,100014.03
2023-04-16T12:50:26.180Z,100005.03
2023-04-16T12:52:53.315Z,100013.63
2023-04-16T12:55:20.600Z,100013.00
2023-04-16T12:57:49.182Z,100008.50
2023-04-16T13:00:16.724Z,100000.94
2023-04-16T13:02:43.889Z,100000.63
2023-04-16T13:05:11.256Z,100003.25
2023-04-16T13:07:38.363Z,100008.81
2023-04-16T13:10:06.604Z,100002.75
2023-04-16T13:12:33.670Z,99996.19
2023-04-16T13:15:01.093Z,99995.78
2023-04-16T13:17:28.265Z,99992.97
2023-04-16T13:19:55.613Z,99978.94
2023-04-16T13:22:23.037Z,99976.84
2023-04-16T13:24:50.373Z,99974.03
2023-04-16T13:27:18.084Z,99985.00
2023-04-16T13:29:45.271Z,99972.75
2023-04-16T13:32:14.170Z,99974.78
2023-04-16T13:34:41.370Z,99979.00
2023-04-16T13:37:08.722Z,99976.44
2023-04-16T13:39:36.008Z,99981.63
2023-04-16T13:42:03.414Z,99971.59
2023-04-16T13:44:30.683Z,99974.41
2023-04-16T13:46:58.163Z,99986.81
2023-04-16T13:49:25.377Z,99992.53
2023-04-16T13:51:52.485Z,99991.00
2023-04-16T13:54:19.717Z,99982.16
2023-04-16T13:56:47.003Z,99984.59
2023-04-16T13:59:15.859Z,99982.38
2023-04-16T14:01:43.236Z,99980.53
2023-04-16T14:04:10.561Z,99976.81
2023-04-16T14:06:37.724Z,99983.50
2023-04-16T14:09:05.062Z,99983.53
2023-04-16T14:11:32.290Z,99971.53
2023-04-16T14:13:59.657Z,99979.72
2023-04-16T14:16:27.554Z,99972.38
2023-04-16T14:18:55.177Z,99964.00
2023-04-16T14:21:22.611Z,99971.78
2023-04-16T14:23:49.983Z,99977.84
2023-04-16T14:26:17.387Z,99970.81
2023-04-16T14:28:45.217Z,99974.38
2023-04-16T14:31:12.870Z,99975.63
2023-04-16T14:33:40.315Z,99968.44
2023-04-16T14:36:08.213Z,99974.69
2023-04-16T14:38:36.216Z,99967.72
2023-04-16T14:41:04.605Z,99992.44
2023-04-16T14:43:33.519Z,99995.75
2023-04-16T14:46:00.905Z,99992.91
2023-04-16T14:48:28.086Z,100008.06
2023-04-16T14:50:55.650Z,100003.72
2023-04-16T14:53:25.082Z,100009.66
2023-04-16T14:55:53.578Z,100019.91
2023-04-16T14:58:22.219Z,100022.78
2023-04-16T15:00:49.674Z,100021.19
2023-04-16T15:03:17.140Z,100033.72
2023-04-16T15:05:44.685Z,100032.81
2023-04-16T15:08:12.639Z,100021.53
2023-04-16T15:10:39.775Z,100016.97
2023-04-16T15:13:06.990Z,100022.44
2023-04-16T15:15:34.087Z,100020.84
2023-04-16T15:18:01.890Z,100020.50
2023-04-16T15:20:29.712Z,100020.94
2023-04-16T15:22:57.097Z,100015.72
2023-04-16T15:25:25.707Z,100015.59
2023-04-16T15:27:52.874Z,100014.47
2023-04-16T15:30:20.232Z,100025.41
2023-04-16T15:32:47.839Z,100028.38
2023-04-16T15:35:15.483Z,100030.63
2023-04-16T15:37:44.112Z,100037.47
2023-04-16T15:40:11.962Z,100039.53
2023-04-16T15:42:39.561Z,100037.94
2023-04-16T15:45:07.456Z,100042.28
2023-04-16T15:47:37.199Z,100051.75
2023-04-16T15:50:06.359Z,100047.31
2023-04-16T15:52:33.516Z,100050.72
2023-04-16T15:55:02.980Z,100057.00
2023-04-16T15:57:31.965Z,100063.50
2023-04-16T16:00:06.969Z,100044.78
2023-04-16T16:02:35.568Z,100053.78
2023-04-16T16:05:03.925Z,100065.31
2023-04-16T16:07:32.530Z,100068.28
2023-04-16T16:10:00.744Z,100057.06
2023-04-16T16:12:28.604Z,100044.91
2023-04-16T16:14:57.019Z,100052.66
2023-04-16T16:17:25.190Z,100048.00
2023-04-16T16:19:53.300Z,100049.91
2023-04-16T16:22:23.963Z,100064.28
2023-04-16T16:24:53.409Z,100075.34
2023-04-16T16:27:22.241Z,100073.06
2023-04-16T16:29:50.556Z,100073.72
2023-04-16T16:32:19.319Z,100087.66
2023-04-16T16:34:47.253Z,100081.91
2023-04-16T16:37:16.268Z,100078.81
2023-04-16T16:39:45.271Z,100080.31
2023-04-16T16:42:14.393Z,100093.19
2023-04-16T16:44:42.381Z,100102.53
2023-04-16T16:47:10.759Z,100091.72
2023-04-16T16:49:38.245Z,100097.97
2023-04-16T16:52:07.444Z,100094.09
2023-04-16T16:54:37.228Z,100100.38
2023-04-16T16:57:06.132Z,100107.47
2023-04-16T16:59:35.130Z,100109.03
2023-04-16T17:02:05.115Z,100113.72
2023-04-16T17:04:33.120Z,100117.00
2023-04-16T17:07:00.952Z,100113.78
2023-04-16T17:09:30.516Z,100107.16
2023-04-16T17:11:58.150Z,100120.03
2023-04-16T17:14:26.254Z,100116.94
2023-04-16T17:16:55.504Z,100130.28
2023-04-16T17:19:24.839Z,100136.75
2023-04-16T17:21:54.038Z,100134.09
2023-04-16T17:24:22.746Z,100129.34
2023-04-16T17:26:52.152Z,100130.81
2023-04-16T17:29:26.350Z,100120.53
2023-04-16T17:31:54.220Z,100109.69
2023-04-16T17:34:21.962Z,100117.47
2023-04-16T17:36:52.734Z,100122.91
2023-04-16T17:39:21.391Z,100130.00
2023-04-16T17:41:54.381Z,100122.78
2023-04-16T17:44:23.408Z,100131.84
2023-04-16T17:46:54.276Z,100141.22
2023-04-16T17:49:21.666Z,100139.00
2023-04-16T17:51:54.064Z,100143.66
2023-04-16T17:54:21.289Z,100143.66
2023-04-16T17:56:48.755Z,100145.13
2023-04-16T17:59:16.265Z,100144.13
2023-04-16T18:01:44.657Z,100150.72
2023-04-16T18:04:12.498Z,100143.19
2023-04-16T18:06:40.277Z,100130.19
2023-04-16T18:09:07.631Z,100134.72
2023-04-16T18:11:35.992Z,100135.53
2023-04-16T18:14:03.314Z,100149.81
2023-04-16T18:16:30.751Z,100155.25
2023-04-16T18:18:58.033Z,100156.97
2023-04-16T18:21:25.168Z,100138.47
2023-04-16T18:23:52.278Z,100149.41
2023-04-16T18:26:22.515Z,100142.34
2023-04-16T18:28:50.364Z,100148.75
2023-04-16T18:31:20.913Z,100150.81
2023-04-16T18:36:19.263Z,100165.41
2023-04-16T18:38:59.220Z,100155.28
2023-04-16T18:41:28.033Z,100152.56
2023-04-16T18:43:55.362Z,100155.28
2023-04-16T18:46:22.882Z,100150.97
2023-04-16T18:48:50.268Z,100150.81
2023-04-16T18:51:19.312Z,100150.69
2023-04-16T18:53:46.872Z,100143.59
2023-04-16T18:56:14.608Z,100143.47
2023-04-16T18:58:43.791Z,100141.06
2023-04-16T19:01:14.192Z,100141.38
2023-04-16T19:03:42.329Z,100145.25
2023-04-16T19:06:11.148Z,100148.31
2023-04-16T19:08:39.297Z,100159.03
2023-04-16T19:11:07.448Z,100154.06
2023-04-16T19:13:36.057Z,100156.94
2023-04-16T19:16:06.715Z,100162.06
2023-04-16T19:18:34.532Z,100161.88
2023-04-16T19:21:03.029Z,100165.59
2023-04-16T19:23:31.276Z,100169.44
2023-04-16T19:25:59.007Z,100170.91
2023-04-16T19:28:26.574Z,100167.84
2023-04-16T19:30:55.068Z,100180.56
2023-04-16T19:33:22.439Z,100195.34
2023-04-16T19:35:49.857Z,100187.16
2023-04-16T19:38:17.025Z,100204.97
2023-04-16T19:40:46.385Z,100198.91
2023-04-16T19:43:13.954Z,100211.59
2023-04-16T19:45:48.091Z,100213.38
2023-04-16T19:48:15.511Z,100224.66
2023-04-16T19:50:43.282Z,100230.41
2023-04-16T19:53:11.668Z,100222.56
2023-04-16T19:55:42.336Z,100232.84
2023-04-16T19:58:10.338Z,100242.94
2023-04-16T20:00:41.842Z,100224.16
2023-04-16T20:03:10.615Z,100228.66
2023-04-16T20:05:38.177Z,100235.41
2023-04-16T20:08:06.474Z,100239.44
2023-04-16T20:10:34.536Z,100235.59
2023-04-16T20:13:02.581Z,100228.22
2023-04-16T20:15:31.245Z,100241.84
2023-04-16T20:17:59.256Z,100248.63
2023-04-16T20:20:27.511Z,100247.19
2023-04-16T20:22:55.152Z,100239.94
2023-04-16T20:25:22.882Z,100247.81
2023-04-16T20:27:50.762Z,100238.03
2023-04-16T20:30:21.281Z,100238.84
2023-04-16T20:32:49.407Z,100233.69
2023-04-16T20:35:17.127Z,100233.69
2023-04-16T20:37:44.626Z,100232.56
2023-04-16T20:40:14.216Z,100222.47
2023-04-16T20:42:46.471Z,100226.16
2023-04-16T20:45:13.918Z,100230.66
2023-04-16T20:47:41.258Z,100225.03
2023-04-16T20:50:08.901Z,100228.72
2023-04-16T20:52:36.602Z,100221.53
2023-04-16T20:55:04.277Z,100225.84
2023-04-16T20:57:32.185Z,100225.69
2023-04-16T20:59:59.372Z,100221.84
2023-04-16T21:02:28.377Z,100234.84
2023-04-16T21:04:56.016Z,100224.41
2023-04-16T21:07:23.394Z,100228.41
2023-04-16T21:09:50.661Z,100214.97
2023-04-16T21:12:17.680Z,100207.25
2023-04-16T21:14:44.879Z,100216.38
2023-04-16T21:17:12.009Z,100214.00
2023-04-16T21:19:40.260Z,100208.84
2023-04-16T21:22:07.513Z,100203.22
2023-04-16T21:24:34.546Z,100197.63
2023-04-16T21:27:01.906Z,100185.94
2023-04-16T21:29:29.513Z,100180.81
2023-04-16T21:31:56.751Z,100169.41
2023-04-16T21:34:23.950Z,100168.94
2023-04-16T21:36:51.258Z,100147.47
2023-04-16T21:39:19.997Z,100125.66
2023-04-16T21:41:47.612Z,100139.13
2023-04-16T21:44:15.589Z,100135.91
2023-04-16T21:46:42.828Z,100139.28
2023-04-16T21:49:10.095Z,100156.41
2023-04-16T21:51:38.690Z,100154.66
2023-04-16T21:54:07.550Z,100167.00
2023-04-16T21:56:34.553Z,100173.59
2023-04-16T21:59:01.733Z,100178.88
2023-04-16T22:01:29.221Z,100179.97
2023-04-16T22:03:56.390Z,100171.19
2023-04-16T22:06:23.628Z,100183.69
2023-04-16T22:08:50.740Z,100179.66
2023-04-16T22:11:18.029Z,100191.34
2023-04-16T22:13:46.458Z,100186.53
2023-04-16T22:16:13.871Z,100192.66
2023-04-16T22:18:41.279Z,100206.59
2023-04-16T22:21:08.535Z,100216.06
2023-04-16T22:23:35.716Z,100212.38
2023-04-16T22:26:03.095Z,100220.22
2023-04-16T22:28:30.132Z,100221.00
2023-04-16T22:30:57.260Z,100216.53
2023-04-16T22:33:24.296Z,100212.00
2023-04-16T22:35:51.416Z,100209.59
2023-04-16T22:38:18.646Z,100209.25
2023-04-16T22:40:49.078Z,100218.56
2023-04-16T22:43:17.774Z,100215.16
2023-04-16T22:45:46.545Z,100221.41
2023-04-16T22:48:13.837Z,100222.88
2023-04-16T22:50:46.071Z,100216.94
2023-04-16T22:53:13.138Z,100219.66
2023-04-16T22:55:40.201Z,100214.50
2023-04-16T22:58:07.174Z,100209.06
2023-04-16T23:00:34.469Z,100222.53
2023-04-16T23:03:01.751Z,100217.75
2023-04-16T23:05:29.170Z,100225.59
2023-04-16T23:07:56.484Z,100227.53
2023-04-16T23:10:23.491Z,100235.53
2023-04-16T23:12:50.661Z,100231.50
2023-04-16T23:15:18.155Z,100238.09
2023-04-16T23:17:46.148Z,100248.66
2023-04-16T23:20:14.408Z,100240.00
2023-04-16T23:22:41.725Z,100240.09
2023-04-16T23:25:09.385Z,100238.34
2023-04-16T23:27:37.154Z,100242.00
2023-04-16T23:30:04.646Z,100246.16
2023-04-16T23:32:32.079Z,100251.13
2023-04-16T23:34:59.291Z,100244.38
2023-04-16T23:37:26.504Z,100252.06
2023-04-16T23:39:53.572Z,100247.25
2023-04-16T23:42:20.797Z,100249.47
2023-04-16T23:44:47.824Z,100248.03
2023-04-16T23:47:14.931Z,100253.31
2023-04-16T23:49:42.127Z,100254.78
2023-04-16T23:52:09.114Z,100246.63
2023-04-16T23:54:36.211Z,100247.78
2023-04-16T23:57:03.380Z,100249.59
2023-04-16T23:59:30.421Z,100248.09
